Ithaca, Michigan
Current Conditions -  °F | °C
As of 5:34 AM on Monday 22 Dec 2014 (Local Time) from KAMN Reporting Station
Haze Haze  
Wind Chill: 25°   Ceiling: Unl
Heat Index: 25°   Visibility: 4mi
Dew Point: 24°   Wind: 3mph
Humidity: 95%   Direction: 80°E
Pressure: 30.09"   Gusts: NA
Location:  43.29°N, 84.61°W
Report Text: KAMN 221034Z AUTO 08003KT 4SM BR CLR M04/M04 A3009 RMK AO2 T10381045
Loading
Personal Weather Stations






























Interactive Weather Map New forecast layout! Learn more

10-Day Weather Forecast

Advertisements
Track Severe Weather on mobile